sensor_id;sensor_type;location;lat;lon;timestamp;temperature;humidity
2663;DHT22;49701;48.072;7.800;2022-08-19T00:01:41;19.70;99.90
2663;DHT22;49701;48.072;7.800;2022-08-19T00:04:10;19.70;99.90
2663;DHT22;49701;48.072;7.800;2022-08-19T00:06:39;19.60;99.90
2663;DHT22;49701;48.072;7.800;2022-08-19T00:09:07;19.60;99.90
2663;DHT22;49701;48.072;7.800;2022-08-19T00:11:33;19.60;99.90
2663;DHT22;49701;48.072;7.800;2022-08-19T00:14:01;19.60;99.90
2663;DHT22;49701;48.072;7.800;2022-08-19T00:16:28;19.60;99.90
2663;DHT22;49701;48.072;7.800;2022-08-19T00:18:54;19.50;99.90
2663;DHT22;49701;48.072;7.800;2022-08-19T00:21:21;19.50;99.90
2663;DHT22;49701;48.072;7.800;2022-08-19T00:23:46;19.50;99.90
2663;DHT22;49701;48.072;7.800;2022-08-19T00:26:12;19.60;99.90
2663;DHT22;49701;48.072;7.800;2022-08-19T00:28:38;19.60;99.90
2663;DHT22;49701;48.072;7.800;2022-08-19T00:31:05;19.50;99.90
2663;DHT22;49701;48.072;7.800;2022-08-19T00:33:31;19.60;99.90
2663;DHT22;49701;48.072;7.800;2022-08-19T00:36:01;19.50;99.90
2663;DHT22;49701;48.072;7.800;2022-08-19T00:38:28;19.50;99.90
2663;DHT22;49701;48.072;7.800;2022-08-19T00:40:54;19.40;99.90
2663;DHT22;49701;48.072;7.800;2022-08-19T00:43:22;19.40;99.90
2663;DHT22;49701;48.072;7.800;2022-08-19T00:45:48;19.40;99.90
2663;DHT22;49701;48.072;7.800;2022-08-19T00:48:15;19.30;99.90
2663;DHT22;49701;48.072;7.800;2022-08-19T00:50:42;19.30;99.90
2663;DHT22;49701;48.072;7.800;2022-08-19T00:53:11;19.20;99.90
2663;DHT22;49701;48.072;7.800;2022-08-19T00:55:37;19.20;99.90
2663;DHT22;49701;48.072;7.800;2022-08-19T00:58:08;19.10;99.90
2663;DHT22;49701;48.072;7.800;2022-08-19T01:00:35;19.10;99.90
2663;DHT22;49701;48.072;7.800;2022-08-19T01:03:04;19.00;99.90
2663;DHT22;49701;48.072;7.800;2022-08-19T01:05:30;19.00;99.90
2663;DHT22;49701;48.072;7.800;2022-08-19T01:07:58;19.00;99.90
2663;DHT22;49701;48.072;7.800;2022-08-19T01:10:27;19.00;99.90
2663;DHT22;49701;48.072;7.800;2022-08-19T01:12:54;19.00;99.90
2663;DHT22;49701;48.072;7.800;2022-08-19T01:15:23;18.90;99.90
2663;DHT22;49701;48.072;7.800;2022-08-19T01:17:51;18.90;99.90
2663;DHT22;49701;48.072;7.800;2022-08-19T01:20:22;18.90;99.90
2663;DHT22;49701;48.072;7.800;2022-08-19T01:22:50;18.90;99.90
2663;DHT22;49701;48.072;7.800;2022-08-19T01:25:24;18.90;99.90
2663;DHT22;49701;48.072;7.800;2022-08-19T01:27:51;18.90;99.90
2663;DHT22;49701;48.072;7.800;2022-08-19T01:30:23;18.90;99.90
2663;DHT22;49701;48.072;7.800;2022-08-19T01:32:50;18.90;99.90
2663;DHT22;49701;48.072;7.800;2022-08-19T01:35:16;18.90;99.90
2663;DHT22;49701;48.072;7.800;2022-08-19T01:37:56;18.90;99.90
2663;DHT22;49701;48.072;7.800;2022-08-19T01:40:24;18.90;99.90
2663;DHT22;49701;48.072;7.800;2022-08-19T01:42:52;18.90;99.90
2663;DHT22;49701;48.072;7.800;2022-08-19T01:45:19;18.90;99.90
2663;DHT22;49701;48.072;7.800;2022-08-19T01:47:45;18.90;99.90
2663;DHT22;49701;48.072;7.800;2022-08-19T01:50:12;18.90;99.90
2663;DHT22;49701;48.072;7.800;2022-08-19T01:52:40;18.90;99.90
2663;DHT22;49701;48.072;7.800;2022-08-19T01:55:09;18.90;99.90
2663;DHT22;49701;48.072;7.800;2022-08-19T01:57:35;18.90;99.90
2663;DHT22;49701;48.072;7.800;2022-08-19T02:00:04;18.90;99.90
2663;DHT22;49701;48.072;7.800;2022-08-19T02:02:30;18.90;99.90
2663;DHT22;49701;48.072;7.800;2022-08-19T02:04:56;18.90;99.90
2663;DHT22;49701;48.072;7.800;2022-08-19T02:07:22;18.90;99.90
2663;DHT22;49701;48.072;7.800;2022-08-19T02:09:48;18.90;99.90
2663;DHT22;49701;48.072;7.800;2022-08-19T02:12:14;18.90;99.90
2663;DHT22;49701;48.072;7.800;2022-08-19T02:14:41;18.90;99.90
2663;DHT22;49701;48.072;7.800;2022-08-19T02:17:07;18.90;99.90
2663;DHT22;49701;48.072;7.800;2022-08-19T02:19:33;18.90;99.90
2663;DHT22;49701;48.072;7.800;2022-08-19T02:21:59;18.90;99.90
2663;DHT22;49701;48.072;7.800;2022-08-19T02:24:26;18.90;99.90
2663;DHT22;49701;48.072;7.800;2022-08-19T02:26:52;18.80;99.90
2663;DHT22;49701;48.072;7.800;2022-08-19T02:29:17;18.80;99.90
2663;DHT22;49701;48.072;7.800;2022-08-19T02:31:43;18.80;99.90
2663;DHT22;49701;48.072;7.800;2022-08-19T02:34:09;18.80;99.90
2663;DHT22;49701;48.072;7.800;2022-08-19T02:36:34;18.80;99.90
2663;DHT22;49701;48.072;7.800;2022-08-19T02:39:00;18.80;99.90
2663;DHT22;49701;48.072;7.800;2022-08-19T02:41:28;18.80;99.90
2663;DHT22;49701;48.072;7.800;2022-08-19T02:43:55;18.80;99.90
2663;DHT22;49701;48.072;7.800;2022-08-19T02:46:28;18.80;99.90
2663;DHT22;49701;48.072;7.800;2022-08-19T02:48:57;18.80;99.90
2663;DHT22;49701;48.072;7.800;2022-08-19T02:51:26;18.80;99.90
2663;DHT22;49701;48.072;7.800;2022-08-19T02:53:52;18.90;99.90
2663;DHT22;49701;48.072;7.800;2022-08-19T02:56:18;18.90;99.90
2663;DHT22;49701;48.072;7.800;2022-08-19T02:58:44;18.90;99.90
2663;DHT22;49701;48.072;7.800;2022-08-19T03:01:11;18.90;99.90
2663;DHT22;49701;48.072;7.800;2022-08-19T03:03:44;18.90;99.90
2663;DHT22;49701;48.072;7.800;2022-08-19T03:06:12;19.00;99.90
2663;DHT22;49701;48.072;7.800;2022-08-19T03:08:40;19.10;99.90
2663;DHT22;49701;48.072;7.800;2022-08-19T03:11:11;19.10;99.90
2663;DHT22;49701;48.072;7.800;2022-08-19T03:13:37;19.20;99.90
2663;DHT22;49701;48.072;7.800;2022-08-19T03:16:04;19.20;99.90
2663;DHT22;49701;48.072;7.800;2022-08-19T03:18:30;19.20;99.90
2663;DHT22;49701;48.072;7.800;2022-08-19T03:20:56;19.20;99.90
2663;DHT22;49701;48.072;7.800;2022-08-19T03:23:22;19.30;99.90
2663;DHT22;49701;48.072;7.800;2022-08-19T03:25:50;19.30;99.90
2663;DHT22;49701;48.072;7.800;2022-08-19T03:28:16;19.30;99.90
2663;DHT22;49701;48.072;7.800;2022-08-19T03:30:43;19.30;99.90
2663;DHT22;49701;48.072;7.800;2022-08-19T03:33:21;19.30;99.90
2663;DHT22;49701;48.072;7.800;2022-08-19T03:35:47;19.30;99.90
2663;DHT22;49701;48.072;7.800;2022-08-19T03:38:12;19.30;99.90
2663;DHT22;49701;48.072;7.800;2022-08-19T03:40:38;19.30;99.90
2663;DHT22;49701;48.072;7.800;2022-08-19T03:43:03;19.40;99.90
2663;DHT22;49701;48.072;7.800;2022-08-19T03:45:29;19.40;99.90
2663;DHT22;49701;48.072;7.800;2022-08-19T03:47:55;19.50;99.90
2663;DHT22;49701;48.072;7.800;2022-08-19T03:50:20;19.50;99.90
2663;DHT22;49701;48.072;7.800;2022-08-19T03:52:50;19.50;99.90
2663;DHT22;49701;48.072;7.800;2022-08-19T03:55:17;19.50;99.90
2663;DHT22;49701;48.072;7.800;2022-08-19T03:57:43;19.50;99.90
2663;DHT22;49701;48.072;7.800;2022-08-19T04:00:10;19.50;99.90
2663;DHT22;49701;48.072;7.800;2022-08-19T04:02:36;19.50;99.90
2663;DHT22;49701;48.072;7.800;2022-08-19T04:05:02;19.50;99.90
2663;DHT22;49701;48.072;7.800;2022-08-19T04:07:27;19.40;99.90
2663;DHT22;49701;48.072;7.800;2022-08-19T04:09:53;19.40;99.90
2663;DHT22;49701;48.072;7.800;2022-08-19T04:12:19;19.30;99.90
2663;DHT22;49701;48.072;7.800;2022-08-19T04:14:46;19.20;99.90
2663;DHT22;49701;48.072;7.800;2022-08-19T04:17:12;19.20;99.90
2663;DHT22;49701;48.072;7.800;2022-08-19T04:19:39;19.10;99.90
2663;DHT22;49701;48.072;7.800;2022-08-19T04:22:05;19.10;99.90
2663;DHT22;49701;48.072;7.800;2022-08-19T04:24:31;19.10;99.90
2663;DHT22;49701;48.072;7.800;2022-08-19T04:26:58;19.10;99.90
2663;DHT22;49701;48.072;7.800;2022-08-19T04:29:24;19.10;99.90
2663;DHT22;49701;48.072;7.800;2022-08-19T04:31:53;19.20;99.90
2663;DHT22;49701;48.072;7.800;2022-08-19T04:34:21;19.20;99.90
2663;DHT22;49701;48.072;7.800;2022-08-19T04:36:47;19.30;99.90
2663;DHT22;49701;48.072;7.800;2022-08-19T04:39:17;19.30;99.90
2663;DHT22;49701;48.072;7.800;2022-08-19T04:41:44;19.40;99.90
2663;DHT22;49701;48.072;7.800;2022-08-19T04:44:30;19.40;99.90
2663;DHT22;49701;48.072;7.800;2022-08-19T04:46:56;19.40;99.90
2663;DHT22;49701;48.072;7.800;2022-08-19T04:49:23;19.40;99.90
2663;DHT22;49701;48.072;7.800;2022-08-19T04:51:50;19.40;99.90
2663;DHT22;49701;48.072;7.800;2022-08-19T04:54:17;19.30;99.90
2663;DHT22;49701;48.072;7.800;2022-08-19T04:56:43;19.30;99.90
2663;DHT22;49701;48.072;7.800;2022-08-19T04:59:09;19.30;99.90
2663;DHT22;49701;48.072;7.800;2022-08-19T05:01:35;19.30;99.90
2663;DHT22;49701;48.072;7.800;2022-08-19T05:04:03;19.20;99.90
2663;DHT22;49701;48.072;7.800;2022-08-19T05:06:31;19.20;99.90
2663;DHT22;49701;48.072;7.800;2022-08-19T05:09:00;19.20;99.90
2663;DHT22;49701;48.072;7.800;2022-08-19T05:11:32;19.20;99.90
2663;DHT22;49701;48.072;7.800;2022-08-19T05:13:58;19.10;99.90
2663;DHT22;49701;48.072;7.800;2022-08-19T05:16:25;19.10;99.90
2663;DHT22;49701;48.072;7.800;2022-08-19T05:18:51;19.10;99.90
2663;DHT22;49701;48.072;7.800;2022-08-19T05:21:35;19.10;99.90
2663;DHT22;49701;48.072;7.800;2022-08-19T05:24:21;19.10;99.90
2663;DHT22;49701;48.072;7.800;2022-08-19T05:26:49;19.10;99.90
2663;DHT22;49701;48.072;7.800;2022-08-19T05:29:17;19.10;99.90
2663;DHT22;49701;48.072;7.800;2022-08-19T05:31:45;19.10;99.90
2663;DHT22;49701;48.072;7.800;2022-08-19T05:34:14;19.10;99.90
2663;DHT22;49701;48.072;7.800;2022-08-19T05:36:42;19.20;99.90
2663;DHT22;49701;48.072;7.800;2022-08-19T05:39:10;19.20;99.90
2663;DHT22;49701;48.072;7.800;2022-08-19T05:41:37;19.30;99.90
2663;DHT22;49701;48.072;7.800;2022-08-19T05:44:06;19.30;99.90
2663;DHT22;49701;48.072;7.800;2022-08-19T05:46:34;19.40;99.90
2663;DHT22;49701;48.072;7.800;2022-08-19T05:49:00;19.40;99.90
2663;DHT22;49701;48.072;7.800;2022-08-19T05:51:26;19.50;99.90
2663;DHT22;49701;48.072;7.800;2022-08-19T05:53:52;19.60;99.90
2663;DHT22;49701;48.072;7.800;2022-08-19T05:56:17;19.60;99.90
2663;DHT22;49701;48.072;7.800;2022-08-19T05:58:44;19.60;99.90
2663;DHT22;49701;48.072;7.800;2022-08-19T06:01:15;19.60;99.90
2663;DHT22;49701;48.072;7.800;2022-08-19T06:03:42;19.60;99.90
2663;DHT22;49701;48.072;7.800;2022-08-19T06:06:09;19.60;99.90
2663;DHT22;49701;48.072;7.800;2022-08-19T06:08:37;19.60;99.90
2663;DHT22;49701;48.072;7.800;2022-08-19T06:11:19;19.60;99.90
2663;DHT22;49701;48.072;7.800;2022-08-19T06:13:47;19.60;99.90
2663;DHT22;49701;48.072;7.800;2022-08-19T06:16:17;19.50;99.90
2663;DHT22;49701;48.072;7.800;2022-08-19T06:18:50;19.50;99.90
2663;DHT22;49701;48.072;7.800;2022-08-19T06:21:20;19.50;99.90
2663;DHT22;49701;48.072;7.800;2022-08-19T06:23:47;19.50;99.90
2663;DHT22;49701;48.072;7.800;2022-08-19T06:26:14;19.50;99.90
2663;DHT22;49701;48.072;7.800;2022-08-19T06:28:39;19.50;99.90
2663;DHT22;49701;48.072;7.800;2022-08-19T06:31:25;19.50;99.90
2663;DHT22;49701;48.072;7.800;2022-08-19T06:33:51;19.60;99.90
2663;DHT22;49701;48.072;7.800;2022-08-19T06:36:22;19.60;99.90
2663;DHT22;49701;48.072;7.800;2022-08-19T06:38:52;19.60;99.90
2663;DHT22;49701;48.072;7.800;2022-08-19T06:41:18;19.70;99.90
2663;DHT22;49701;48.072;7.800;2022-08-19T06:43:44;19.70;99.90
2663;DHT22;49701;48.072;7.800;2022-08-19T06:46:14;19.70;99.90
2663;DHT22;49701;48.072;7.800;2022-08-19T06:48:41;19.70;99.90
2663;DHT22;49701;48.072;7.800;2022-08-19T06:51:07;19.70;99.90
2663;DHT22;49701;48.072;7.800;2022-08-19T06:53:33;19.70;99.90
2663;DHT22;49701;48.072;7.800;2022-08-19T06:55:59;19.70;99.90
2663;DHT22;49701;48.072;7.800;2022-08-19T06:58:28;19.80;99.90
2663;DHT22;49701;48.072;7.800;2022-08-19T07:01:06;19.80;99.90
2663;DHT22;49701;48.072;7.800;2022-08-19T07:03:33;19.80;99.90
2663;DHT22;49701;48.072;7.800;2022-08-19T07:06:08;19.80;99.90
2663;DHT22;49701;48.072;7.800;2022-08-19T07:08:36;19.80;99.90
2663;DHT22;49701;48.072;7.800;2022-08-19T07:11:06;19.80;99.90
2663;DHT22;49701;48.072;7.800;2022-08-19T07:13:33;19.90;99.90
2663;DHT22;49701;48.072;7.800;2022-08-19T07:16:11;19.90;99.90
2663;DHT22;49701;48.072;7.800;2022-08-19T07:18:37;20.00;99.90
2663;DHT22;49701;48.072;7.800;2022-08-19T07:21:08;20.10;99.90
2663;DHT22;49701;48.072;7.800;2022-08-19T07:23:34;20.20;99.90
2663;DHT22;49701;48.072;7.800;2022-08-19T07:26:29;20.30;99.90
2663;DHT22;49701;48.072;7.800;2022-08-19T07:28:56;20.50;99.90
2663;DHT22;49701;48.072;7.800;2022-08-19T07:31:25;20.60;99.90
2663;DHT22;49701;48.072;7.800;2022-08-19T07:33:52;20.60;99.90
2663;DHT22;49701;48.072;7.800;2022-08-19T07:36:25;20.60;99.90
2663;DHT22;49701;48.072;7.800;2022-08-19T07:38:51;20.60;99.90
2663;DHT22;49701;48.072;7.800;2022-08-19T07:41:22;20.70;99.90
2663;DHT22;49701;48.072;7.800;2022-08-19T07:43:48;20.60;99.90
2663;DHT22;49701;48.072;7.800;2022-08-19T07:46:14;20.80;99.90
2663;DHT22;49701;48.072;7.800;2022-08-19T07:48:44;20.80;99.90
2663;DHT22;49701;48.072;7.800;2022-08-19T07:51:15;20.80;99.90
2663;DHT22;49701;48.072;7.800;2022-08-19T07:53:41;20.80;99.90
2663;DHT22;49701;48.072;7.800;2022-08-19T07:56:08;20.80;99.90
2663;DHT22;49701;48.072;7.800;2022-08-19T07:58:37;20.80;99.90
2663;DHT22;49701;48.072;7.800;2022-08-19T08:01:04;20.80;99.90
2663;DHT22;49701;48.072;7.800;2022-08-19T08:03:30;20.80;99.90
2663;DHT22;49701;48.072;7.800;2022-08-19T08:06:15;20.80;99.90
2663;DHT22;49701;48.072;7.800;2022-08-19T08:09:04;20.90;99.90
2663;DHT22;49701;48.072;7.800;2022-08-19T08:11:40;20.90;99.90
2663;DHT22;49701;48.072;7.800;2022-08-19T08:14:08;21.00;99.90
2663;DHT22;49701;48.072;7.800;2022-08-19T08:16:38;21.10;99.90
2663;DHT22;49701;48.072;7.800;2022-08-19T08:19:05;21.10;99.90
2663;DHT22;49701;48.072;7.800;2022-08-19T08:21:32;21.20;99.90
2663;DHT22;49701;48.072;7.800;2022-08-19T08:23:58;21.20;99.90
2663;DHT22;49701;48.072;7.800;2022-08-19T08:26:24;21.10;99.90
2663;DHT22;49701;48.072;7.800;2022-08-19T08:28:51;21.10;99.90
2663;DHT22;49701;48.072;7.800;2022-08-19T08:31:16;21.10;99.90
2663;DHT22;49701;48.072;7.800;2022-08-19T08:33:44;21.20;99.90
2663;DHT22;49701;48.072;7.800;2022-08-19T08:36:11;21.20;99.90
2663;DHT22;49701;48.072;7.800;2022-08-19T08:38:40;21.20;99.90
2663;DHT22;49701;48.072;7.800;2022-08-19T08:41:37;21.30;99.90
2663;DHT22;49701;48.072;7.800;2022-08-19T08:43:58;21.30;99.90
2663;DHT22;49701;48.072;7.800;2022-08-19T08:46:34;21.40;99.90
2663;DHT22;49701;48.072;7.800;2022-08-19T08:49:51;21.40;99.90
2663;DHT22;49701;48.072;7.800;2022-08-19T08:52:06;21.60;99.90
2663;DHT22;49701;48.072;7.800;2022-08-19T08:54:42;21.60;99.90
2663;DHT22;49701;48.072;7.800;2022-08-19T08:57:15;21.70;99.90
2663;DHT22;49701;48.072;7.800;2022-08-19T08:59:46;21.80;99.90
2663;DHT22;49701;48.072;7.800;2022-08-19T09:02:16;21.90;99.90
2663;DHT22;49701;48.072;7.800;2022-08-19T09:04:42;22.00;99.90
2663;DHT22;49701;48.072;7.800;2022-08-19T09:10:40;22.20;99.90
2663;DHT22;49701;48.072;7.800;2022-08-19T09:16:26;22.20;99.90
2663;DHT22;49701;48.072;7.800;2022-08-19T09:18:57;22.30;99.90
2663;DHT22;49701;48.072;7.800;2022-08-19T09:21:24;22.40;99.90
2663;DHT22;49701;48.072;7.800;2022-08-19T09:23:51;22.40;99.90
2663;DHT22;49701;48.072;7.800;2022-08-19T09:26:19;22.50;99.90
2663;DHT22;49701;48.072;7.800;2022-08-19T09:28:46;22.60;99.90
2663;DHT22;49701;48.072;7.800;2022-08-19T09:31:18;22.60;99.90
2663;DHT22;49701;48.072;7.800;2022-08-19T09:33:44;22.70;99.90
2663;DHT22;49701;48.072;7.800;2022-08-19T09:36:12;22.80;99.90
2663;DHT22;49701;48.072;7.800;2022-08-19T09:38:39;22.90;99.90
2663;DHT22;49701;48.072;7.800;2022-08-19T09:41:19;22.90;99.90
2663;DHT22;49701;48.072;7.800;2022-08-19T09:43:46;22.90;99.90
2663;DHT22;49701;48.072;7.800;2022-08-19T09:46:12;22.90;99.90
2663;DHT22;49701;48.072;7.800;2022-08-19T09:48:39;23.00;99.90
2663;DHT22;49701;48.072;7.800;2022-08-19T09:51:10;23.10;99.90
2663;DHT22;49701;48.072;7.800;2022-08-19T09:53:37;23.20;99.90
2663;DHT22;49701;48.072;7.800;2022-08-19T09:56:04;23.30;99.90
2663;DHT22;49701;48.072;7.800;2022-08-19T09:58:31;23.40;99.90
2663;DHT22;49701;48.072;7.800;2022-08-19T10:00:58;23.50;99.90
2663;DHT22;49701;48.072;7.800;2022-08-19T10:03:26;23.60;99.90
2663;DHT22;49701;48.072;7.800;2022-08-19T10:05:53;23.60;99.90
2663;DHT22;49701;48.072;7.800;2022-08-19T10:08:22;23.60;99.90
2663;DHT22;49701;48.072;7.800;2022-08-19T10:10:49;23.60;99.90
2663;DHT22;49701;48.072;7.800;2022-08-19T10:13:18;23.70;99.90
2663;DHT22;49701;48.072;7.800;2022-08-19T10:15:47;23.80;99.90
2663;DHT22;49701;48.072;7.800;2022-08-19T10:18:16;24.00;99.90
2663;DHT22;49701;48.072;7.800;2022-08-19T10:20:43;24.00;99.90
2663;DHT22;49701;48.072;7.800;2022-08-19T10:23:11;24.10;99.90
2663;DHT22;49701;48.072;7.800;2022-08-19T10:25:36;24.20;99.90
2663;DHT22;49701;48.072;7.800;2022-08-19T10:28:03;24.20;99.90
2663;DHT22;49701;48.072;7.800;2022-08-19T10:30:29;24.20;99.90
2663;DHT22;49701;48.072;7.800;2022-08-19T10:32:55;24.20;99.90
2663;DHT22;49701;48.072;7.800;2022-08-19T10:35:20;24.10;99.90
2663;DHT22;49701;48.072;7.800;2022-08-19T10:37:46;24.10;99.90
2663;DHT22;49701;48.072;7.800;2022-08-19T10:40:12;24.10;99.90
2663;DHT22;49701;48.072;7.800;2022-08-19T10:42:37;24.10;99.90
2663;DHT22;49701;48.072;7.800;2022-08-19T10:45:04;24.20;99.90
2663;DHT22;49701;48.072;7.800;2022-08-19T10:47:32;24.30;99.90
2663;DHT22;49701;48.072;7.800;2022-08-19T10:49:58;24.40;99.90
2663;DHT22;49701;48.072;7.800;2022-08-19T10:52:46;24.50;99.90
2663;DHT22;49701;48.072;7.800;2022-08-19T10:55:12;24.70;99.90
2663;DHT22;49701;48.072;7.800;2022-08-19T10:57:56;24.80;99.90
2663;DHT22;49701;48.072;7.800;2022-08-19T11:00:24;24.90;99.90
2663;DHT22;49701;48.072;7.800;2022-08-19T11:02:50;25.00;99.90
2663;DHT22;49701;48.072;7.800;2022-08-19T11:05:16;24.90;99.90
2663;DHT22;49701;48.072;7.800;2022-08-19T11:07:43;25.00;99.90
2663;DHT22;49701;48.072;7.800;2022-08-19T11:10:11;25.00;99.90
2663;DHT22;49701;48.072;7.800;2022-08-19T11:12:39;25.10;99.90
2663;DHT22;49701;48.072;7.800;2022-08-19T11:15:06;25.10;99.90
2663;DHT22;49701;48.072;7.800;2022-08-19T11:17:34;25.20;99.90
2663;DHT22;49701;48.072;7.800;2022-08-19T11:20:01;25.30;99.90
2663;DHT22;49701;48.072;7.800;2022-08-19T11:22:29;25.50;99.90
2663;DHT22;49701;48.072;7.800;2022-08-19T11:24:54;25.60;99.90
2663;DHT22;49701;48.072;7.800;2022-08-19T11:27:21;25.80;99.90
2663;DHT22;49701;48.072;7.800;2022-08-19T11:29:47;25.90;99.90
2663;DHT22;49701;48.072;7.800;2022-08-19T11:32:12;26.00;99.90
2663;DHT22;49701;48.072;7.800;2022-08-19T11:34:38;26.00;99.90
2663;DHT22;49701;48.072;7.800;2022-08-19T11:37:05;26.10;99.90
2663;DHT22;49701;48.072;7.800;2022-08-19T11:39:32;26.20;99.90
2663;DHT22;49701;48.072;7.800;2022-08-19T11:42:00;26.20;99.90
2663;DHT22;49701;48.072;7.800;2022-08-19T11:44:26;26.40;99.90
2663;DHT22;49701;48.072;7.800;2022-08-19T11:46:55;26.60;99.90
2663;DHT22;49701;48.072;7.800;2022-08-19T11:49:21;26.70;99.90
2663;DHT22;49701;48.072;7.800;2022-08-19T11:51:47;26.80;99.90
2663;DHT22;49701;48.072;7.800;2022-08-19T11:54:16;26.80;99.90
2663;DHT22;49701;48.072;7.800;2022-08-19T11:56:43;26.70;99.90
2663;DHT22;49701;48.072;7.800;2022-08-19T11:59:09;26.60;99.90
2663;DHT22;49701;48.072;7.800;2022-08-19T12:01:36;26.50;99.90
2663;DHT22;49701;48.072;7.800;2022-08-19T12:04:02;26.50;99.90
2663;DHT22;49701;48.072;7.800;2022-08-19T12:06:32;26.60;99.90
2663;DHT22;49701;48.072;7.800;2022-08-19T12:09:03;26.70;99.90
2663;DHT22;49701;48.072;7.800;2022-08-19T12:11:30;26.70;99.90
2663;DHT22;49701;48.072;7.800;2022-08-19T12:13:56;26.80;99.90
2663;DHT22;49701;48.072;7.800;2022-08-19T12:16:27;26.90;99.90
2663;DHT22;49701;48.072;7.800;2022-08-19T12:18:55;27.10;99.90
2663;DHT22;49701;48.072;7.800;2022-08-19T12:21:26;27.50;99.90
2663;DHT22;49701;48.072;7.800;2022-08-19T12:23:55;27.80;99.90
2663;DHT22;49701;48.072;7.800;2022-08-19T12:26:21;27.90;99.90
2663;DHT22;49701;48.072;7.800;2022-08-19T12:28:47;28.00;99.90
2663;DHT22;49701;48.072;7.800;2022-08-19T12:31:14;27.90;99.90
2663;DHT22;49701;48.072;7.800;2022-08-19T12:33:41;27.80;99.90
2663;DHT22;49701;48.072;7.800;2022-08-19T12:36:08;27.60;99.90
2663;DHT22;49701;48.072;7.800;2022-08-19T12:38:35;27.60;99.90
2663;DHT22;49701;48.072;7.800;2022-08-19T12:41:01;27.90;99.90
2663;DHT22;49701;48.072;7.800;2022-08-19T12:43:30;28.00;99.90
2663;DHT22;49701;48.072;7.800;2022-08-19T12:45:56;28.00;99.90
2663;DHT22;49701;48.072;7.800;2022-08-19T12:48:21;28.00;99.90
2663;DHT22;49701;48.072;7.800;2022-08-19T12:50:47;28.00;99.90
2663;DHT22;49701;48.072;7.800;2022-08-19T12:53:13;27.90;99.90
2663;DHT22;49701;48.072;7.800;2022-08-19T12:55:39;27.90;99.90
2663;DHT22;49701;48.072;7.800;2022-08-19T12:58:05;27.80;99.90
2663;DHT22;49701;48.072;7.800;2022-08-19T13:00:31;27.70;99.90
2663;DHT22;49701;48.072;7.800;2022-08-19T13:02:58;27.70;99.90
2663;DHT22;49701;48.072;7.800;2022-08-19T13:05:27;27.70;99.90
2663;DHT22;49701;48.072;7.800;2022-08-19T13:07:55;27.70;99.90
2663;DHT22;49701;48.072;7.800;2022-08-19T13:10:23;27.80;99.90
2663;DHT22;49701;48.072;7.800;2022-08-19T13:12:51;27.80;99.90
2663;DHT22;49701;48.072;7.800;2022-08-19T13:15:20;27.70;99.90
2663;DHT22;49701;48.072;7.800;2022-08-19T13:17:47;27.80;99.90
2663;DHT22;49701;48.072;7.800;2022-08-19T13:20:16;28.00;99.90
2663;DHT22;49701;48.072;7.800;2022-08-19T13:22:42;28.10;99.90
2663;DHT22;49701;48.072;7.800;2022-08-19T13:25:08;28.00;99.90
2663;DHT22;49701;48.072;7.800;2022-08-19T13:27:35;27.90;99.90
2663;DHT22;49701;48.072;7.800;2022-08-19T13:30:02;27.90;99.90
2663;DHT22;49701;48.072;7.800;2022-08-19T13:32:46;27.70;99.90
2663;DHT22;49701;48.072;7.800;2022-08-19T13:35:30;27.70;99.90
2663;DHT22;49701;48.072;7.800;2022-08-19T13:37:56;27.80;99.90
2663;DHT22;49701;48.072;7.800;2022-08-19T13:40:24;28.00;99.90
2663;DHT22;49701;48.072;7.800;2022-08-19T13:42:53;28.20;99.90
2663;DHT22;49701;48.072;7.800;2022-08-19T13:45:21;28.50;99.90
2663;DHT22;49701;48.072;7.800;2022-08-19T13:47:49;29.00;99.90
2663;DHT22;49701;48.072;7.800;2022-08-19T13:50:16;29.60;99.90
2663;DHT22;49701;48.072;7.800;2022-08-19T13:52:43;30.10;99.90
2663;DHT22;49701;48.072;7.800;2022-08-19T13:55:10;30.60;99.70
2663;DHT22;49701;48.072;7.800;2022-08-19T13:57:36;30.80;98.80
2663;DHT22;49701;48.072;7.800;2022-08-19T14:00:16;30.70;98.50
2663;DHT22;49701;48.072;7.800;2022-08-19T14:02:45;30.60;98.50
2663;DHT22;49701;48.072;7.800;2022-08-19T14:05:14;30.30;98.90
2663;DHT22;49701;48.072;7.800;2022-08-19T14:07:40;30.00;99.00
2663;DHT22;49701;48.072;7.800;2022-08-19T14:10:08;29.70;99.40
2663;DHT22;49701;48.072;7.800;2022-08-19T14:12:34;29.20;99.90
2663;DHT22;49701;48.072;7.800;2022-08-19T14:15:00;28.80;99.90
2663;DHT22;49701;48.072;7.800;2022-08-19T14:17:26;28.50;99.90
2663;DHT22;49701;48.072;7.800;2022-08-19T14:19:59;28.10;99.90
2663;DHT22;49701;48.072;7.800;2022-08-19T14:22:26;27.70;99.90
2663;DHT22;49701;48.072;7.800;2022-08-19T14:24:51;27.40;99.90
2663;DHT22;49701;48.072;7.800;2022-08-19T14:27:17;27.20;99.90
2663;DHT22;49701;48.072;7.800;2022-08-19T14:29:42;26.90;99.90
2663;DHT22;49701;48.072;7.800;2022-08-19T14:32:10;26.40;99.90
2663;DHT22;49701;48.072;7.800;2022-08-19T14:34:37;26.10;99.90
2663;DHT22;49701;48.072;7.800;2022-08-19T14:37:03;25.80;99.90
2663;DHT22;49701;48.072;7.800;2022-08-19T14:39:28;25.60;99.90
2663;DHT22;49701;48.072;7.800;2022-08-19T14:41:54;25.30;99.90
2663;DHT22;49701;48.072;7.800;2022-08-19T14:44:20;25.20;99.90
2663;DHT22;49701;48.072;7.800;2022-08-19T14:46:45;25.10;99.90
2663;DHT22;49701;48.072;7.800;2022-08-19T14:49:11;25.10;99.90
2663;DHT22;49701;48.072;7.800;2022-08-19T14:51:37;25.00;99.90
2663;DHT22;49701;48.072;7.800;2022-08-19T14:54:04;25.00;99.90
2663;DHT22;49701;48.072;7.800;2022-08-19T14:56:30;24.90;99.90
2663;DHT22;49701;48.072;7.800;2022-08-19T14:58:56;24.90;99.90
2663;DHT22;49701;48.072;7.800;2022-08-19T15:01:25;24.80;99.90
2663;DHT22;49701;48.072;7.800;2022-08-19T15:03:51;24.70;99.90
2663;DHT22;49701;48.072;7.800;2022-08-19T15:06:21;24.60;99.90
2663;DHT22;49701;48.072;7.800;2022-08-19T15:08:48;24.60;99.90
2663;DHT22;49701;48.072;7.800;2022-08-19T15:11:16;24.60;99.90
2663;DHT22;49701;48.072;7.800;2022-08-19T15:13:43;24.60;99.90
2663;DHT22;49701;48.072;7.800;2022-08-19T15:16:10;24.70;99.90
2663;DHT22;49701;48.072;7.800;2022-08-19T15:18:35;24.60;99.90
2663;DHT22;49701;48.072;7.800;2022-08-19T15:21:02;24.60;99.90
2663;DHT22;49701;48.072;7.800;2022-08-19T15:23:28;24.60;99.90
2663;DHT22;49701;48.072;7.800;2022-08-19T15:25:53;24.60;99.90
2663;DHT22;49701;48.072;7.800;2022-08-19T15:28:23;24.50;99.90
2663;DHT22;49701;48.072;7.800;2022-08-19T15:30:49;24.50;99.90
2663;DHT22;49701;48.072;7.800;2022-08-19T15:33:15;24.50;99.90
2663;DHT22;49701;48.072;7.800;2022-08-19T15:35:42;24.40;99.90
2663;DHT22;49701;48.072;7.800;2022-08-19T15:38:09;24.40;99.90
2663;DHT22;49701;48.072;7.800;2022-08-19T15:40:36;24.30;99.90
2663;DHT22;49701;48.072;7.800;2022-08-19T15:43:01;24.30;99.90
2663;DHT22;49701;48.072;7.800;2022-08-19T15:45:27;24.30;99.90
2663;DHT22;49701;48.072;7.800;2022-08-19T15:47:57;24.40;99.90
2663;DHT22;49701;48.072;7.800;2022-08-19T15:50:23;24.50;99.90
2663;DHT22;49701;48.072;7.800;2022-08-19T15:52:58;24.60;99.90
2663;DHT22;49701;48.072;7.800;2022-08-19T15:55:33;24.50;99.90
2663;DHT22;49701;48.072;7.800;2022-08-19T15:58:06;24.50;99.90